Time;durP1;ratioP1;P1;durP2;ratioP2;P2;SDS_P1;SDS_P2;PMS_P1;PMS_P2;Temp;Humidity;BMP_temperature;BMP_pressure;BME280_temperature;BME280_humidity;BME280_pressure;Samples;Min_cycle;Max_cycle;Signal;HPM_P1;HPM_P2
2022/04/30 00:00:59;;;;;;;17.10;12.37;;;;;;;14.28;70.82;97469.06;4836061;29;20226;-94
2022/04/30 00:03:28;;;;;;;16.03;10.70;;;;;;;14.41;70.88;97525.66;4830031;29;20200;-94
2022/04/30 00:05:56;;;;;;;16.37;12.17;;;;;;;13.71;71.18;97402.66;4823929;29;20236;-93
2022/04/30 00:08:23;;;;;;;16.83;12.27;;;;;;;14.41;71.82;97512.63;4843318;29;20588;-95
2022/04/30 00:10:52;;;;;;;20.20;12.63;;;;;;;14.22;71.55;97480.63;4829574;29;20208;-95
2022/04/30 00:13:19;;;;;;;19.00;12.67;;;;;;;14.47;71.19;97514.91;4815120;29;20712;-95
2022/04/30 00:15:47;;;;;;;19.13;13.13;;;;;;;14.35;71.78;97522.53;4828139;29;20208;-93
2022/04/30 00:18:14;;;;;;;17.60;12.00;;;;;;;13.60;71.71;97421.44;4813878;29;20201;-94
2022/04/30 00:20:48;;;;;;;17.20;11.90;;;;;;;13.83;72.19;97446.25;4797239;29;20666;-93
2022/04/30 00:23:22;;;;;;;18.30;11.50;;;;;;;14.08;71.72;97459.69;4813017;29;20208;-93
2022/04/30 00:25:51;;;;;;;16.20;12.03;;;;;;;14.27;71.45;97488.22;4827535;29;20196;-93
2022/04/30 00:28:21;;;;;;;16.90;12.00;;;;;;;14.01;71.80;97457.50;4827255;29;20219;-93
2022/04/30 00:30:49;;;;;;;16.70;11.77;;;;;;;14.35;71.80;97496.47;4842867;29;20196;-92
2022/04/30 00:33:16;;;;;;;16.17;11.83;;;;;;;13.51;73.14;97411.50;4856645;29;20232;-92
2022/04/30 00:35:44;;;;;;;17.83;13.07;;;;;;;13.66;73.57;97425.50;4827631;29;20657;-94
2022/04/30 00:38:12;;;;;;;19.07;14.17;;;;;;;14.06;73.22;97479.75;4810811;29;20749;-93
2022/04/30 00:40:45;;;;;;;19.20;13.60;;;;;;;13.68;72.76;97423.66;4827746;29;20205;-93
2022/04/30 00:43:12;;;;;;;19.13;13.43;;;;;;;13.71;71.83;97429.53;4827377;29;20203;-93
2022/04/30 00:45:47;;;;;;;21.83;14.03;;;;;;;14.13;72.13;97517.59;4812299;29;20291;-93
2022/04/30 00:48:15;;;;;;;18.47;13.80;;;;;;;14.08;72.46;97516.97;4812889;29;20200;-92
2022/04/30 00:50:43;;;;;;;18.80;13.50;;;;;;;13.85;73.08;97484.31;4811837;29;20715;-94
2022/04/30 00:53:19;;;;;;;20.00;13.77;;;;;;;14.13;72.97;97520.22;4842393;29;21000;-94
2022/04/30 00:55:48;;;;;;;16.87;13.20;;;;;;;13.61;72.80;97430.94;4827414;29;20351;-94
2022/04/30 00:58:20;;;;;;;24.13;14.47;;;;;;;13.94;72.89;97463.94;4827947;29;20278;-94
2022/04/30 01:00:49;;;;;;;21.13;15.17;;;;;;;14.10;73.05;97515.13;4812472;29;20208;-94
2022/04/30 01:03:37;;;;;;;18.20;13.40;;;;;;;13.89;73.64;97508.44;4856989;29;20208;-94
2022/04/30 01:06:06;;;;;;;18.20;13.03;;;;;;;13.41;73.56;97410.31;4828007;29;20197;-95
2022/04/30 01:08:33;;;;;;;19.73;13.07;;;;;;;14.07;73.10;97510.09;4826401;29;20263;-93
2022/04/30 01:11:03;;;;;;;19.13;14.17;;;;;;;13.99;73.65;97501.84;4842396;29;20257;-93
2022/04/30 01:13:36;;;;;;;20.07;14.27;;;;;;;13.63;73.79;97457.72;4857334;29;20322;-93
2022/04/30 01:16:06;;;;;;;17.73;13.57;;;;;;;13.75;74.55;97477.91;4841574;29;20635;-93
2022/04/30 01:18:37;;;;;;;19.30;13.20;;;;;;;13.61;74.85;97476.94;4827349;29;20215;-92
2022/04/30 01:21:10;;;;;;;21.70;14.13;;;;;;;13.22;75.69;97451.16;4826696;29;20246;-93
2022/04/30 01:23:42;;;;;;;21.03;14.57;;;;;;;13.51;75.72;97486.13;4827819;29;20208;-93
2022/04/30 01:26:10;;;;;;;21.63;14.60;;;;;;;13.51;76.10;97488.72;4812541;29;20197;-93
2022/04/30 01:28:40;;;;;;;20.07;14.97;;;;;;;13.73;75.17;97495.38;4830631;29;20201;-94
2022/04/30 01:37:22;;;;;;;20.53;13.70;;;;;;;13.42;74.73;97424.13;4830472;29;20294;-93
2022/04/30 01:39:36;;;;;;;20.80;14.60;;;;;;;13.44;75.99;97456.97;4830870;29;20203;-94
2022/04/30 01:42:11;;;;;;;18.13;12.87;;;;;;;13.61;76.07;97477.78;4844883;29;20206;-94
2022/04/30 01:44:41;;;;;;;17.93;13.17;;;;;;;13.45;76.35;97483.81;4830609;29;20299;-93
2022/04/30 01:47:10;;;;;;;19.63;14.10;;;;;;;13.35;76.66;97472.19;4844317;29;20532;-93
2022/04/30 01:49:38;;;;;;;20.80;14.63;;;;;;;13.19;77.65;97460.88;4845489;29;20575;-94
2022/04/30 01:52:07;;;;;;;19.90;14.03;;;;;;;12.77;77.36;97399.63;4844767;29;20230;-93
2022/04/30 01:54:36;;;;;;;19.30;14.33;;;;;;;13.07;76.42;97434.56;4830663;29;20249;-94
2022/04/30 01:57:04;;;;;;;20.87;13.93;;;;;;;12.77;75.94;97389.25;4830394;29;20300;-94
2022/04/30 01:59:34;;;;;;;19.90;13.37;;;;;;;13.14;76.03;97427.28;4829643;29;20224;-93
2022/04/30 02:02:04;;;;;;;20.93;13.80;;;;;;;13.59;75.83;97437.13;4815593;29;20213;-94
2022/04/30 02:04:32;;;;;;;22.43;14.87;;;;;;;13.71;75.25;97441.69;4829321;29;20201;-93
2022/04/30 02:07:01;;;;;;;20.50;14.80;;;;;;;13.44;75.23;97415.34;4831787;29;20208;-92
2022/04/30 02:09:30;;;;;;;21.03;13.77;;;;;;;13.86;74.43;97473.00;4835478;29;20211;-93
2022/04/30 02:11:59;;;;;;;22.07;15.10;;;;;;;13.95;74.75;97484.69;4831445;29;20677;-93
2022/04/30 02:14:30;;;;;;;22.33;15.97;;;;;;;13.91;75.30;97482.34;4847139;29;20262;-93
2022/04/30 02:17:00;;;;;;;22.47;15.77;;;;;;;13.81;75.41;97466.34;4829563;29;20251;-93
2022/04/30 02:20:18;;;;;;;22.67;16.00;;;;;;;13.33;76.11;97404.66;4815646;29;20196;-92
2022/04/30 02:22:18;;;;;;;21.93;14.57;;;;;;;13.04;76.87;97393.09;4829471;29;20199;-93
2022/04/30 02:24:45;;;;;;;21.73;15.10;;;;;;;13.14;76.56;97416.03;4830400;29;20722;-93
2022/04/30 02:27:14;;;;;;;20.20;13.87;;;;;;;13.33;76.23;97443.69;4829849;29;20286;-93
2022/04/30 02:29:44;;;;;;;21.20;14.80;;;;;;;13.33;76.89;97453.22;4844132;29;20232;-93
2022/04/30 02:32:12;;;;;;;21.70;14.20;;;;;;;13.10;76.23;97383.31;4829779;29;20205;-94
2022/04/30 02:34:42;;;;;;;17.27;13.40;;;;;;;13.86;75.80;97469.56;4814457;29;20611;-95
2022/04/30 02:37:14;;;;;;;22.07;14.43;;;;;;;13.74;75.47;97457.16;4844609;29;20198;-95
2022/04/30 02:39:45;;;;;;;19.73;14.33;;;;;;;13.69;75.04;97438.34;4829247;29;20204;-93
2022/04/30 02:42:13;;;;;;;21.93;15.20;;;;;;;13.23;74.62;97355.78;4829300;29;20204;-93
2022/04/30 02:44:42;;;;;;;22.40;15.50;;;;;;;13.57;75.66;97434.63;4844682;29;20232;-92
2022/04/30 02:47:10;;;;;;;23.43;15.13;;;;;;;13.16;77.18;97416.81;4844213;29;20725;-93
2022/04/30 02:49:38;;;;;;;22.13;15.37;;;;;;;12.86;77.72;97395.72;4829740;29;20222;-94
2022/04/30 02:52:05;;;;;;;23.13;14.97;;;;;;;12.99;76.91;97391.59;4813625;29;21184;-93
2022/04/30 02:54:34;;;;;;;24.17;15.70;;;;;;;13.44;76.94;97446.56;4814624;29;20243;-95
2022/04/30 02:57:02;;;;;;;22.20;15.03;;;;;;;13.38;76.14;97425.22;4828935;29;20271;-95
2022/04/30 03:02:38;;;;;;;22.60;16.07;;;;;;;12.89;78.18;97425.03;4844150;29;20264;-94
2022/04/30 03:05:07;;;;;;;22.17;15.23;;;;;;;13.52;77.20;97487.78;4813598;29;20261;-95
2022/04/30 03:07:37;;;;;;;24.57;14.87;;;;;;;13.47;77.21;97489.78;4814193;29;20514;-94
2022/04/30 03:10:06;;;;;;;20.57;14.63;;;;;;;13.40;76.98;97485.81;4834709;29;20211;-94
2022/04/30 03:12:34;;;;;;;21.73;15.40;;;;;;;13.33;76.45;97455.84;4819425;29;20256;-93
2022/04/30 03:15:01;;;;;;;24.10;14.67;;;;;;;13.31;76.36;97455.06;4830252;29;20235;-93
2022/04/30 03:23:01;;;;;;;16.23;12.13;;;;;;;13.21;77.11;97503.25;4842961;29;20203;-93
2022/04/30 03:25:28;;;;;;;17.23;11.90;;;;;;;13.23;75.99;97491.03;4828550;29;20239;-93
2022/04/30 03:27:56;;;;;;;14.90;10.10;;;;;;;12.69;76.45;97422.56;4828260;29;20212;-92
2022/04/30 03:30:25;;;;;;;14.13;10.03;;;;;;;13.11;75.74;97502.03;4828715;29;20203;-93
2022/04/30 03:32:52;;;;;;;12.70;9.07;;;;;;;12.53;74.64;97416.38;4828867;29;20204;-94
2022/04/30 03:35:19;;;;;;;12.20;8.70;;;;;;;12.49;74.52;97430.44;4842186;29;20238;-94
2022/04/30 03:37:46;;;;;;;7.73;6.10;;;;;;;12.32;71.82;97399.22;4813448;29;20728;-94
2022/04/30 03:40:14;;;;;;;5.67;4.97;;;;;;;12.90;70.25;97465.69;4825894;29;20259;-93
2022/04/30 03:42:41;;;;;;;8.70;5.83;;;;;;;13.26;70.00;97520.31;4827637;29;20210;-91
2022/04/30 03:45:11;;;;;;;7.90;5.63;;;;;;;13.06;69.39;97466.66;4825865;29;20203;-92
2022/04/30 03:47:38;;;;;;;6.07;5.00;;;;;;;13.50;69.35;97518.25;4841944;29;20201;-93
2022/04/30 03:50:07;;;;;;;7.73;5.50;;;;;;;13.13;70.28;97498.41;4840739;29;20200;-93
2022/04/30 03:52:34;;;;;;;7.20;6.00;;;;;;;13.30;70.70;97523.59;4811076;29;20202;-93
2022/04/30 03:55:02;;;;;;;7.37;5.67;;;;;;;13.49;69.72;97521.78;4841837;29;20242;-93
2022/04/30 03:57:31;;;;;;;8.83;5.13;;;;;;;13.42;68.42;97490.03;4840642;29;20249;-92
2022/04/30 03:59:58;;;;;;;6.77;4.60;;;;;;;13.50;67.74;97485.28;4812097;29;20208;-92
2022/04/30 04:02:27;;;;;;;5.17;4.37;;;;;;;13.71;66.56;97501.56;4825244;29;20202;-93
2022/04/30 04:04:56;;;;;;;5.20;4.00;;;;;;;13.67;67.13;97515.66;4826739;29;20211;-92
2022/04/30 04:07:23;;;;;;;5.00;4.50;;;;;;;13.44;67.12;97466.53;4835191;29;20230;-92
2022/04/30 04:09:52;;;;;;;4.73;4.23;;;;;;;13.57;66.91;97501.44;4839621;29;20203;-93
2022/04/30 04:12:21;;;;;;;5.43;4.57;;;;;;;13.32;67.54;97461.94;4841664;29;20206;-93
2022/04/30 04:17:37;;;;;;;6.20;4.30;;;;;;;13.59;66.53;97445.78;4843948;29;20233;-93
2022/04/30 04:20:10;;;;;;;5.77;4.13;;;;;;;13.87;65.33;97458.19;4826223;29;20239;-93
2022/04/30 04:22:38;;;;;;;4.13;3.73;;;;;;;14.04;65.41;97505.03;4844047;29;20203;-93
2022/04/30 04:27:57;;;;;;;5.00;4.17;;;;;;;14.18;65.29;97533.00;4870579;29;20196;-91
2022/04/30 04:30:31;;;;;;;4.23;3.57;;;;;;;14.17;64.78;97534.75;4861540;29;20218;-92
2022/04/30 04:33:00;;;;;;;5.73;3.97;;;;;;;14.21;65.50;97528.47;4846749;29;20227;-93
2022/04/30 04:35:28;;;;;;;5.90;4.60;;;;;;;14.02;64.95;97488.66;4847257;29;20290;-93
2022/04/30 04:37:55;;;;;;;4.33;3.90;;;;;;;14.19;65.04;97517.28;4826539;29;20736;-90
2022/04/30 04:40:22;;;;;;;4.83;3.57;;;;;;;13.81;64.65;97458.53;4811201;29;20204;-92
2022/04/30 04:42:49;;;;;;;4.07;3.50;;;;;;;13.89;65.75;97485.84;4811439;29;20294;-93
2022/04/30 04:45:17;;;;;;;4.57;3.70;;;;;;;13.94;65.33;97493.44;4855882;29;20288;-91
2022/04/30 04:47:49;;;;;;;4.17;3.77;;;;;;;14.31;65.48;97534.03;4835411;29;20220;-92
2022/04/30 04:50:17;;;;;;;4.57;3.93;;;;;;;14.20;65.42;97502.50;4818617;29;20205;-93
2022/04/30 04:52:46;;;;;;;4.80;3.90;;;;;;;14.47;65.02;97540.97;4793068;29;20676;-92
2022/04/30 04:55:15;;;;;;;10.73;6.50;;;;;;;14.38;64.77;97535.41;4792578;29;20589;-93
2022/04/30 04:57:42;;;;;;;5.63;4.67;;;;;;;13.66;65.06;97436.72;4807816;29;20634;-92
2022/04/30 05:00:10;;;;;;;4.03;3.50;;;;;;;13.89;65.06;97469.38;4841102;29;20204;-93
2022/04/30 05:02:38;;;;;;;13.20;7.30;;;;;;;14.24;64.71;97504.84;4839978;29;20232;-90
2022/04/30 05:05:06;;;;;;;7.63;3.80;;;;;;;13.94;64.22;97423.13;4811873;29;20209;-92
2022/04/30 05:07:34;;;;;;;6.70;3.50;;;;;;;14.49;63.27;97507.84;4840917;29;20215;-93
2022/04/30 05:10:01;;;;;;;4.80;3.00;;;;;;;14.22;63.28;97472.81;4842360;29;20203;-93
2022/04/30 05:12:29;;;;;;;3.67;2.80;;;;;;;14.50;62.27;97493.91;4841616;29;20203;-92
2022/04/30 05:14:56;;;;;;;3.90;2.80;;;;;;;14.38;62.30;97473.72;4811436;29;20225;-91
2022/04/30 05:17:23;;;;;;;4.87;3.10;;;;;;;14.51;62.31;97490.38;4812003;29;20233;-92
2022/04/30 05:19:50;;;;;;;3.70;2.53;;;;;;;14.95;60.47;97527.06;4841203;29;20201;-93
2022/04/30 05:22:18;;;;;;;4.47;3.50;;;;;;;14.98;61.17;97531.25;4826322;29;20205;-91
2022/04/30 05:24:45;;;;;;;4.47;3.07;;;;;;;14.69;61.84;97499.78;4809795;29;20201;-89
2022/04/30 05:27:14;;;;;;;3.73;2.80;;;;;;;14.95;61.67;97541.84;4811630;29;21032;-93
2022/04/30 05:29:43;;;;;;;3.90;3.13;;;;;;;14.61;60.77;97441.22;4825049;29;20196;-92
2022/04/30 05:32:13;;;;;;;4.43;2.87;;;;;;;15.38;59.65;97515.03;4840650;29;20209;-92
2022/04/30 05:34:40;;;;;;;4.80;2.70;;;;;;;15.38;58.98;97522.88;4826025;29;20232;-91
2022/04/30 05:37:08;;;;;;;3.40;2.60;;;;;;;15.30;58.62;97496.38;4843347;29;20188;-91
2022/04/30 05:39:35;;;;;;;4.63;2.50;;;;;;;15.55;58.08;97511.50;4828858;29;20212;-91
2022/04/30 05:42:02;;;;;;;4.77;3.30;;;;;;;15.95;56.13;97505.63;4831156;29;20201;-91
2022/04/30 05:44:29;;;;;;;4.50;3.50;;;;;;;15.93;54.87;97452.63;4844004;29;20268;-91
2022/04/30 05:46:57;;;;;;;3.27;2.57;;;;;;;16.41;54.69;97538.50;4813881;29;20207;-90
2022/04/30 05:49:24;;;;;;;2.03;1.90;;;;;;;16.06;53.20;97517.09;4843706;29;20200;-92
2022/04/30 05:51:52;;;;;;;2.37;1.80;;;;;;;15.85;52.77;97525.34;4842317;29;20300;-91
2022/04/30 05:54:28;;;;;;;3.77;1.93;;;;;;;15.28;54.24;97451.25;4827012;29;20200;-90
2022/04/30 05:56:55;;;;;;;3.20;1.93;;;;;;;15.08;55.70;97467.22;4829305;29;20759;-90
2022/04/30 05:59:25;;;;;;;2.70;1.87;;;;;;;15.26;55.87;97519.19;4836899;29;20195;-92
2022/04/30 06:01:54;;;;;;;4.37;3.00;;;;;;;15.58;54.99;97527.81;4842980;29;20208;-91
2022/04/30 06:04:22;;;;;;;2.80;2.30;;;;;;;15.25;54.71;97446.22;4843247;29;20192;-92
2022/04/30 06:06:49;;;;;;;2.27;1.77;;;;;;;15.72;52.95;97525.25;4829638;29;20201;-92
2022/04/30 06:09:19;;;;;;;3.40;2.57;;;;;;;16.27;52.37;97554.16;4858425;29;20185;-93
2022/04/30 06:11:47;;;;;;;4.83;2.77;;;;;;;16.57;52.17;97556.75;4837614;29;20680;-91
2022/04/30 06:14:14;;;;;;;1.97;1.57;;;;;;;16.28;51.33;97483.50;4829681;29;20243;-93
2022/04/30 06:16:41;;;;;;;3.60;2.23;;;;;;;16.41;51.26;97480.13;4829140;29;20207;-94
2022/04/30 06:19:09;;;;;;;3.43;2.13;;;;;;;16.58;52.78;97527.03;4864840;29;20207;-91
2022/04/30 06:21:39;;;;;;;12.00;6.87;;;;;;;16.41;51.66;97441.75;4862896;29;20681;-92
2022/04/30 06:24:08;;;;;;;3.30;2.97;;;;;;;16.92;52.89;97558.84;4835843;29;20621;-93
2022/04/30 06:26:35;;;;;;;4.67;3.60;;;;;;;17.08;51.42;97495.91;4848929;29;20229;-92
2022/04/30 06:29:03;;;;;;;4.63;2.87;;;;;;;17.37;51.56;97538.53;4846961;29;20290;-92
2022/04/30 06:31:31;;;;;;;5.73;3.23;;;;;;;17.37;50.58;97518.41;4832128;29;20596;-92
2022/04/30 06:33:59;;;;;;;3.20;2.90;;;;;;;17.44;51.19;97513.63;4829852;29;20198;-90
2022/04/30 06:36:26;;;;;;;3.93;3.17;;;;;;;17.39;50.76;97527.03;4849639;29;20226;-92
2022/04/30 06:38:54;;;;;;;3.90;3.10;;;;;;;17.35;50.95;97496.72;4830698;29;20248;-90
2022/04/30 06:41:22;;;;;;;19.43;4.57;;;;;;;17.67;52.19;97552.28;4846613;29;20229;-90
2022/04/30 06:43:52;;;;;;;48.70;7.63;;;;;;;17.46;51.85;97558.88;4843782;29;20204;-91
2022/04/30 06:46:19;;;;;;;15.63;9.40;;;;;;;17.19;52.07;97496.03;4829315;29;20297;-92
2022/04/30 06:48:47;;;;;;;9.87;3.30;;;;;;;17.15;52.13;97491.09;4845569;29;20208;-90
2022/04/30 06:51:14;;;;;;;5.33;3.07;;;;;;;17.46;51.39;97512.56;4861202;29;20198;-94
2022/04/30 06:59:17;;;;;;;4.87;3.00;;;;;;;18.01;49.94;97499.28;4832023;29;20648;-95
2022/04/30 07:02:01;;;;;;;2.60;2.30;;;;;;;17.40;50.71;97489.41;4845470;29;20207;-94
2022/04/30 07:04:30;;;;;;;6.47;3.00;;;;;;;17.02;51.06;97481.44;4843643;29;20214;-95
2022/04/30 07:06:59;;;;;;;2.80;2.60;;;;;;;17.38;50.03;97485.22;4829168;29;20198;-95
2022/04/30 07:09:28;;;;;;;8.70;3.03;;;;;;;17.68;49.94;97512.88;4812457;29;20199;-94
2022/04/30 07:11:58;;;;;;;1.80;1.70;;;;;;;16.65;49.60;97479.47;4846383;29;20206;-94
2022/04/30 07:14:26;;;;;;;4.87;2.23;;;;;;;16.87;49.13;97539.13;4829206;29;20205;-96
2022/04/30 07:16:56;;;;;;;5.00;4.50;;;;;;;17.43;48.80;97552.06;4848203;29;20221;-93
2022/04/30 07:19:25;;;;;;;1.97;1.80;;;;;;;17.70;48.77;97531.13;4849963;29;20214;-96
2022/04/30 07:21:56;;;;;;;2.37;2.17;;;;;;;17.43;48.01;97538.97;4837071;29;20206;-95
2022/04/30 07:24:24;;;;;;;2.20;2.00;;;;;;;17.20;48.89;97534.38;4853992;29;20220;-96
2022/04/30 07:26:52;;;;;;;3.93;2.50;;;;;;;17.50;47.98;97493.13;4837623;29;20224;-94
2022/04/30 07:29:36;;;;;;;3.57;3.23;;;;;;;18.38;47.89;97555.31;4836736;29;20734;-93
2022/04/30 07:32:08;;;;;;;5.60;2.80;;;;;;;18.56;47.18;97536.53;4837468;29;20200;-95
2022/04/30 07:34:39;;;;;;;5.47;3.10;;;;;;;18.46;47.97;97553.88;4837356;29;20298;-93
2022/04/30 07:37:11;;;;;;;5.23;3.40;;;;;;;18.37;47.25;97514.28;4851359;29;20227;-93
2022/04/30 07:39:40;;;;;;;3.77;2.20;;;;;;;18.68;47.01;97553.19;4850549;29;20244;-94
2022/04/30 07:42:10;;;;;;;5.13;3.47;;;;;;;18.71;46.56;97500.53;4820388;29;20235;-94
2022/04/30 07:44:46;;;;;;;3.47;2.93;;;;;;;18.59;46.69;97475.13;4818950;29;20274;-92
2022/04/30 07:47:22;;;;;;;6.17;3.83;;;;;;;18.81;46.73;97564.53;4834728;29;20207;-94
2022/04/30 07:49:56;;;;;;;3.40;2.73;;;;;;;18.07;46.88;97498.03;4836215;29;20200;-95
2022/04/30 07:52:35;;;;;;;3.93;2.73;;;;;;;17.48;46.60;97478.44;4838978;29;20208;-94
2022/04/30 07:55:07;;;;;;;2.57;2.37;;;;;;;17.12;47.96;97467.75;4852376;29;20260;-93
2022/04/30 07:57:42;;;;;;;6.07;3.40;;;;;;;17.10;48.50;97520.22;4851816;29;20205;-93
2022/04/30 08:00:12;;;;;;;4.07;2.50;;;;;;;16.85;48.54;97478.22;4828639;29;20309;-94
2022/04/30 08:02:44;;;;;;;4.67;3.83;;;;;;;16.96;48.02;97481.81;4854113;29;20214;-94
2022/04/30 08:05:19;;;;;;;7.50;4.47;;;;;;;17.37;47.55;97500.06;4860524;29;20210;-94
2022/04/30 08:07:54;;;;;;;8.47;3.10;;;;;;;17.88;46.64;97525.50;4831590;29;20209;-95
2022/04/30 08:10:26;;;;;;;4.00;2.77;;;;;;;17.59;46.63;97423.59;4850422;29;20198;-95
2022/04/30 08:13:06;;;;;;;3.93;3.00;;;;;;;18.29;46.65;97499.09;4877269;29;20202;-96
2022/04/30 08:16:09;;;;;;;4.37;2.37;;;;;;;18.77;45.61;97533.34;4847665;29;20291;-93
2022/04/30 08:19:38;;;;;;;6.60;2.57;;;;;;;18.82;46.37;97550.44;4876895;29;20360;-93
2022/04/30 08:22:37;;;;;;;3.60;2.53;;;;;;;18.75;45.94;97543.97;4837734;29;20203;-92
2022/04/30 08:31:28;;;;;;;;;;;;;;;;;;;;;
2022/04/30 09:31:39;;;;;;;2.23;1.97;;;;;;;18.35;45.49;97484.69;5114603;27;20566;-93
2022/04/30 09:37:41;;;;;;;2.40;1.87;;;;;;;18.24;45.55;97529.16;5096203;28;20304;-92
2022/04/30 09:39:42;;;;;;;2.97;2.67;;;;;;;17.79;44.79;97505.13;5095343;28;20193;-92
2022/04/30 09:42:10;;;;;;;2.33;1.93;;;;;;;17.65;44.15;97452.84;5111103;28;20193;-92
2022/04/30 09:44:37;;;;;;;3.30;2.47;;;;;;;17.52;44.32;97423.16;5096765;28;20210;-91
2022/04/30 09:47:08;;;;;;;2.33;1.90;;;;;;;17.47;43.81;97477.63;5078121;28;20225;-92
2022/04/30 09:55:13;;;;;;;4.93;2.70;;;;;;;17.22;45.09;97438.28;5092630;28;20206;-93
2022/04/30 09:57:41;;;;;;;2.50;1.90;;;;;;;17.60;44.95;97441.81;5093414;28;20230;-92
2022/04/30 10:00:10;;;;;;;2.40;2.20;;;;;;;18.28;44.84;97478.22;5093222;28;20200;-92
2022/04/30 10:02:46;;;;;;;2.30;1.80;;;;;;;18.22;43.69;97455.00;5076907;28;20264;-93
2022/04/30 10:05:16;;;;;;;2.60;2.00;;;;;;;18.37;43.47;97472.31;5095456;28;20669;-93
2022/04/30 10:07:44;;;;;;;2.73;1.90;;;;;;;18.26;42.18;97456.50;5095663;28;20290;-93
2022/04/30 10:10:21;;;;;;;2.20;1.80;;;;;;;17.92;43.10;97509.56;5079282;28;20221;-93
2022/04/30 10:12:56;;;;;;;3.73;1.90;;;;;;;18.24;42.57;97490.69;5092824;28;20224;-91
2022/04/30 10:15:57;;;;;;;2.50;1.60;;;;;;;18.14;40.95;97446.84;5114633;28;20247;-94
2022/04/30 10:18:34;;;;;;;1.87;1.77;;;;;;;18.21;42.21;97490.06;5078273;28;20197;-93
2022/04/30 10:21:06;;;;;;;2.20;2.00;;;;;;;17.80;43.12;97412.47;5047335;28;20589;-93
2022/04/30 10:23:33;;;;;;;1.70;1.60;;;;;;;17.52;42.74;97412.69;5096439;28;20209;-94
2022/04/30 10:26:07;;;;;;;2.53;2.00;;;;;;;17.92;43.29;97472.88;5072745;28;20204;-89
2022/04/30 10:28:35;;;;;;;2.80;1.70;;;;;;;17.78;42.30;97440.56;5111956;28;20193;-90
2022/04/30 10:31:12;;;;;;;1.83;1.73;;;;;;;18.41;41.56;97476.41;5120348;28;20236;-92
2022/04/30 10:33:51;;;;;;;2.23;1.93;;;;;;;18.92;41.08;97470.09;5112877;28;20282;-91
2022/04/30 10:36:35;;;;;;;3.13;1.80;;;;;;;18.51;42.88;97474.84;5095467;28;20207;-91
2022/04/30 10:39:09;;;;;;;2.67;2.20;;;;;;;18.27;42.78;97473.91;5091061;28;20218;-93
2022/04/30 10:41:43;;;;;;;2.30;2.10;;;;;;;18.54;42.51;97480.72;5085041;28;20298;-93
2022/04/30 10:44:13;;;;;;;2.47;1.90;;;;;;;18.24;42.24;97455.75;5059636;28;20250;-92
2022/04/30 10:46:42;;;;;;;2.47;1.87;;;;;;;18.02;42.14;97405.75;5060890;28;20591;-91
2022/04/30 10:49:10;;;;;;;2.40;2.00;;;;;;;17.80;41.42;97414.28;5059563;28;20200;-91
2022/04/30 10:51:44;;;;;;;3.27;2.10;;;;;;;18.08;42.36;97474.34;5059839;28;20624;-96
2022/04/30 10:54:15;;;;;;;2.57;2.07;;;;;;;17.98;41.67;97449.69;5075082;28;20230;-92
2022/04/30 10:57:02;;;;;;;3.00;2.10;;;;;;;18.67;41.73;97457.91;5059540;28;20202;-95
2022/04/30 10:59:35;;;;;;;4.00;2.10;;;;;;;17.96;42.83;97424.53;5078964;28;20196;-92
2022/04/30 11:02:02;;;;;;;2.80;2.07;;;;;;;17.60;43.62;97394.66;5079600;28;20285;-92
2022/04/30 11:04:32;;;;;;;3.30;2.03;;;;;;;17.84;44.20;97452.44;5075885;28;20211;-91
2022/04/30 11:07:02;;;;;;;2.77;2.23;;;;;;;17.40;43.50;97378.59;5058853;28;20685;-93
2022/04/30 11:09:30;;;;;;;2.13;1.93;;;;;;;18.06;43.26;97442.16;5073856;28;20293;-93
2022/04/30 11:11:57;;;;;;;2.00;1.80;;;;;;;18.13;42.82;97430.31;5056040;28;20316;-93
2022/04/30 11:14:24;;;;;;;2.23;2.00;;;;;;;18.33;43.19;97466.44;5039679;28;20203;-94
2022/04/30 11:16:57;;;;;;;2.20;2.00;;;;;;;17.40;43.13;97389.06;5056936;28;20196;-92
2022/04/30 11:19:25;;;;;;;2.17;1.83;;;;;;;18.07;43.29;97445.63;5040529;28;20209;-94
2022/04/30 11:21:54;;;;;;;2.40;2.07;;;;;;;18.52;41.30;97447.66;5060293;28;20690;-93
2022/04/30 11:24:29;;;;;;;2.97;2.10;;;;;;;18.65;41.68;97453.69;5076053;28;20606;-95
2022/04/30 11:26:59;;;;;;;2.27;2.07;;;;;;;18.96;42.28;97478.63;5061078;28;20268;-94
2022/04/30 11:29:26;;;;;;;3.27;2.20;;;;;;;18.24;42.91;97409.41;5066976;28;20196;-94
2022/04/30 11:31:58;;;;;;;1.73;1.60;;;;;;;17.68;42.43;97367.97;5059189;28;20304;-93
2022/04/30 11:34:26;;;;;;;2.60;1.70;;;;;;;18.09;42.21;97443.72;5073620;28;20665;-93
2022/04/30 11:37:17;;;;;;;6.47;2.07;;;;;;;17.84;43.01;97469.00;5066427;28;20218;-94
2022/04/30 11:39:44;;;;;;;2.03;1.70;;;;;;;18.00;43.72;97486.28;5077868;28;20195;-94
2022/04/30 11:42:17;;;;;;;2.93;2.10;;;;;;;17.89;44.15;97480.00;5075317;28;20263;-94
2022/04/30 11:44:44;;;;;;;3.47;3.17;;;;;;;17.87;43.79;97466.16;5092138;28;20215;-93
2022/04/30 11:47:14;;;;;;;2.80;1.63;;;;;;;18.04;43.26;97485.13;5077411;28;20194;-94
2022/04/30 11:49:41;;;;;;;4.50;1.90;;;;;;;18.09;42.56;97481.28;5080237;28;20194;-92
2022/04/30 11:52:11;;;;;;;1.90;1.70;;;;;;;17.50;43.61;97413.72;5096228;28;20190;-92
2022/04/30 11:54:41;;;;;;;2.60;1.70;;;;;;;17.29;43.95;97488.44;5090512;28;20195;-92
2022/04/30 11:57:13;;;;;;;2.70;2.10;;;;;;;17.45;44.64;97481.25;5076623;28;20240;-92
2022/04/30 11:59:42;;;;;;;3.30;2.53;;;;;;;16.75;43.73;97355.03;5092682;28;20748;-93
2022/04/30 12:02:28;;;;;;;2.83;2.00;;;;;;;17.28;44.42;97422.16;5094760;28;20656;-92
2022/04/30 12:05:05;;;;;;;5.50;2.03;;;;;;;17.81;43.78;97471.81;5061136;28;20202;-92
2022/04/30 12:07:45;;;;;;;2.40;2.13;;;;;;;17.73;43.68;97445.28;5075004;28;20199;-92
2022/04/30 12:10:15;;;;;;;2.60;2.40;;;;;;;17.97;44.75;97460.31;5076072;28;20621;-92
2022/04/30 12:12:46;;;;;;;3.83;1.90;;;;;;;17.88;44.13;97452.13;5073726;28;20203;-93
2022/04/30 12:15:20;;;;;;;3.13;2.10;;;;;;;18.14;42.88;97463.41;5059498;28;20651;-93
2022/04/30 12:26:25;;;;;;;1.90;1.70;;;;;;;17.38;43.47;97397.03;5077922;28;20193;-91
2022/04/30 12:28:57;;;;;;;1.97;1.60;;;;;;;17.58;43.67;97430.59;5094633;28;20227;-94
2022/04/30 12:31:28;;;;;;;2.53;2.23;;;;;;;18.07;41.92;97414.16;5078678;28;20291;-94
2022/04/30 12:33:56;;;;;;;1.87;1.60;;;;;;;18.21;41.33;97390.44;5077534;28;20670;-94
2022/04/30 12:36:24;;;;;;;2.30;1.70;;;;;;;18.46;41.00;97377.28;5062857;28;20204;-93
2022/04/30 12:38:56;;;;;;;3.10;2.30;;;;;;;19.04;40.63;97437.69;5057593;28;20193;-93
2022/04/30 12:41:24;;;;;;;3.50;1.50;;;;;;;18.53;40.13;97418.69;5073354;28;20195;-93
2022/04/30 12:43:52;;;;;;;1.53;1.43;;;;;;;18.06;40.88;97381.88;5073980;28;20194;-93
2022/04/30 12:46:23;;;;;;;2.10;1.60;;;;;;;18.56;40.03;97438.63;5076779;28;20200;-92
2022/04/30 12:48:51;;;;;;;4.10;1.50;;;;;;;17.99;40.84;97375.34;5058705;28;20186;-92
2022/04/30 12:51:20;;;;;;;2.10;1.60;;;;;;;18.07;40.47;97365.19;5075811;28;20222;-93
2022/04/30 12:53:47;;;;;;;2.97;1.43;;;;;;;18.62;39.87;97414.59;5092036;28;20188;-91
2022/04/30 12:56:16;;;;;;;1.60;1.50;;;;;;;18.34;41.00;97423.53;5072913;28;20192;-93
2022/04/30 12:58:44;;;;;;;2.60;1.40;;;;;;;18.19;40.97;97381.84;5078460;28;20232;-92
2022/04/30 13:01:11;;;;;;;2.50;1.60;;;;;;;17.91;41.93;97338.38;5076320;28;20224;-92
2022/04/30 13:03:40;;;;;;;2.83;1.60;;;;;;;18.42;42.26;97388.91;5074776;28;20198;-91
2022/04/30 13:06:10;;;;;;;3.10;1.90;;;;;;;18.90;41.67;97432.63;5077270;28;20210;-94
2022/04/30 13:14:14;;;;;;;3.33;1.80;;;;;;;18.09;42.06;97347.59;5084856;28;20201;-93
2022/04/30 13:16:44;;;;;;;4.17;1.70;;;;;;;18.29;42.49;97361.88;5060923;28;20206;-90
2022/04/30 13:19:13;;;;;;;4.67;2.00;;;;;;;18.82;43.00;97418.38;5085054;28;20283;-92
2022/04/30 13:21:46;;;;;;;2.63;1.60;;;;;;;18.81;41.78;97328.34;5084229;28;20201;-92
2022/04/30 13:24:17;;;;;;;2.37;1.50;;;;;;;18.44;42.89;97427.22;5089120;28;20662;-93
2022/04/30 13:26:44;;;;;;;3.37;1.80;;;;;;;18.59;43.20;97399.06;5075473;28;20288;-93
2022/04/30 13:29:12;;;;;;;4.87;1.97;;;;;;;18.30;43.75;97422.06;5087986;28;20204;-92
2022/04/30 13:31:40;;;;;;;3.73;1.83;;;;;;;18.20;42.72;97401.84;5089749;28;20222;-92
2022/04/30 13:34:09;;;;;;;2.57;2.03;;;;;;;18.19;41.88;97373.97;5093351;28;20191;-91
2022/04/30 13:36:37;;;;;;;3.43;2.00;;;;;;;18.53;42.75;97413.44;5103976;28;20202;-92